sensor_id;sensor_type;location;lat;lon;timestamp;temperature;humidity
15341;DHT22;7770;52.158;5.372;2022-12-08T00:02:14;3.80;99.90
15341;DHT22;7770;52.158;5.372;2022-12-08T00:05:00;3.80;99.90
15341;DHT22;7770;52.158;5.372;2022-12-08T00:08:05;3.90;99.90
15341;DHT22;7770;52.158;5.372;2022-12-08T00:11:12;3.90;99.90
15341;DHT22;7770;52.158;5.372;2022-12-08T00:13:58;3.90;99.90
15341;DHT22;7770;52.158;5.372;2022-12-08T00:16:45;3.90;99.90
15341;DHT22;7770;52.158;5.372;2022-12-08T00:19:31;4.00;99.90
15341;DHT22;7770;52.158;5.372;2022-12-08T00:22:17;4.00;99.90
15341;DHT22;7770;52.158;5.372;2022-12-08T00:25:03;4.00;99.90
15341;DHT22;7770;52.158;5.372;2022-12-08T00:27:50;4.00;99.90
15341;DHT22;7770;52.158;5.372;2022-12-08T00:30:39;4.00;99.90
15341;DHT22;7770;52.158;5.372;2022-12-08T00:33:28;4.00;99.90
15341;DHT22;7770;52.158;5.372;2022-12-08T00:36:14;4.00;99.90
15341;DHT22;7770;52.158;5.372;2022-12-08T00:39:00;4.00;99.90
15341;DHT22;7770;52.158;5.372;2022-12-08T00:41:46;4.00;99.90
15341;DHT22;7770;52.158;5.372;2022-12-08T00:44:51;4.00;99.90
15341;DHT22;7770;52.158;5.372;2022-12-08T00:47:36;3.90;99.90
15341;DHT22;7770;52.158;5.372;2022-12-08T00:50:23;3.90;99.90
15341;DHT22;7770;52.158;5.372;2022-12-08T00:53:08;3.80;99.90
15341;DHT22;7770;52.158;5.372;2022-12-08T00:55:54;3.80;99.90
15341;DHT22;7770;52.158;5.372;2022-12-08T00:58:40;3.80;99.90
15341;DHT22;7770;52.158;5.372;2022-12-08T01:01:27;3.80;99.90
15341;DHT22;7770;52.158;5.372;2022-12-08T01:04:14;3.80;99.90
15341;DHT22;7770;52.158;5.372;2022-12-08T01:07:01;3.70;99.90
15341;DHT22;7770;52.158;5.372;2022-12-08T01:09:47;3.70;99.90
15341;DHT22;7770;52.158;5.372;2022-12-08T01:12:33;3.80;99.90
15341;DHT22;7770;52.158;5.372;2022-12-08T01:15:19;3.70;99.90
15341;DHT22;7770;52.158;5.372;2022-12-08T01:18:05;3.80;99.90
15341;DHT22;7770;52.158;5.372;2022-12-08T01:20:51;3.80;99.90
15341;DHT22;7770;52.158;5.372;2022-12-08T01:23:37;3.90;99.90
15341;DHT22;7770;52.158;5.372;2022-12-08T01:26:23;3.90;99.90
15341;DHT22;7770;52.158;5.372;2022-12-08T01:29:09;3.90;99.90
15341;DHT22;7770;52.158;5.372;2022-12-08T01:31:56;3.90;99.90
15341;DHT22;7770;52.158;5.372;2022-12-08T01:34:42;3.90;99.90
15341;DHT22;7770;52.158;5.372;2022-12-08T01:37:28;3.90;99.90
15341;DHT22;7770;52.158;5.372;2022-12-08T01:40:14;4.00;99.90
15341;DHT22;7770;52.158;5.372;2022-12-08T01:43:00;4.00;99.90
15341;DHT22;7770;52.158;5.372;2022-12-08T01:45:47;4.00;99.90
15341;DHT22;7770;52.158;5.372;2022-12-08T01:48:33;3.90;99.90
15341;DHT22;7770;52.158;5.372;2022-12-08T01:51:19;3.90;99.90
15341;DHT22;7770;52.158;5.372;2022-12-08T01:54:06;3.90;99.90
15341;DHT22;7770;52.158;5.372;2022-12-08T01:56:58;3.80;99.90
15341;DHT22;7770;52.158;5.372;2022-12-08T01:59:52;3.80;99.90
15341;DHT22;7770;52.158;5.372;2022-12-08T02:05:45;3.80;99.90
15341;DHT22;7770;52.158;5.372;2022-12-08T02:08:33;3.80;99.90
15341;DHT22;7770;52.158;5.372;2022-12-08T02:11:19;3.80;99.90
15341;DHT22;7770;52.158;5.372;2022-12-08T02:14:07;3.80;99.90
15341;DHT22;7770;52.158;5.372;2022-12-08T02:20:11;3.80;99.90
15341;DHT22;7770;52.158;5.372;2022-12-08T02:23:17;3.80;99.90
15341;DHT22;7770;52.158;5.372;2022-12-08T02:33:34;3.80;99.90
15341;DHT22;7770;52.158;5.372;2022-12-08T02:36:55;3.80;99.90
15341;DHT22;7770;52.158;5.372;2022-12-08T02:40:13;3.90;99.90
15341;DHT22;7770;52.158;5.372;2022-12-08T02:43:21;3.90;99.90
15341;DHT22;7770;52.158;5.372;2022-12-08T02:46:29;3.90;99.90
15341;DHT22;7770;52.158;5.372;2022-12-08T02:49:18;3.90;99.90
15341;DHT22;7770;52.158;5.372;2022-12-08T02:55:02;3.90;99.90
15341;DHT22;7770;52.158;5.372;2022-12-08T02:58:05;3.90;99.90
15341;DHT22;7770;52.158;5.372;2022-12-08T03:07:14;3.90;99.90
15341;DHT22;7770;52.158;5.372;2022-12-08T03:10:36;3.90;99.90
15341;DHT22;7770;52.158;5.372;2022-12-08T03:13:33;3.90;99.90
15341;DHT22;7770;52.158;5.372;2022-12-08T03:16:27;4.00;99.90
15341;DHT22;7770;52.158;5.372;2022-12-08T03:19:18;4.00;99.90
15341;DHT22;7770;52.158;5.372;2022-12-08T03:22:08;4.10;99.90
15341;DHT22;7770;52.158;5.372;2022-12-08T03:24:56;4.10;99.90
15341;DHT22;7770;52.158;5.372;2022-12-08T03:27:42;4.10;99.90
15341;DHT22;7770;52.158;5.372;2022-12-08T03:30:31;4.10;99.90
15341;DHT22;7770;52.158;5.372;2022-12-08T03:33:23;4.10;99.90
15341;DHT22;7770;52.158;5.372;2022-12-08T03:36:13;4.10;99.90
15341;DHT22;7770;52.158;5.372;2022-12-08T03:38:59;4.10;99.90
15341;DHT22;7770;52.158;5.372;2022-12-08T03:41:46;4.10;99.90
15341;DHT22;7770;52.158;5.372;2022-12-08T03:44:32;4.10;99.90
15341;DHT22;7770;52.158;5.372;2022-12-08T03:47:18;4.00;99.90
15341;DHT22;7770;52.158;5.372;2022-12-08T03:50:04;4.00;99.90
15341;DHT22;7770;52.158;5.372;2022-12-08T03:52:51;4.00;99.90
15341;DHT22;7770;52.158;5.372;2022-12-08T03:55:37;4.00;99.90
15341;DHT22;7770;52.158;5.372;2022-12-08T03:58:23;4.00;99.90
15341;DHT22;7770;52.158;5.372;2022-12-08T04:01:09;4.00;99.90
15341;DHT22;7770;52.158;5.372;2022-12-08T04:03:55;4.00;99.90
15341;DHT22;7770;52.158;5.372;2022-12-08T04:06:41;3.90;99.90
15341;DHT22;7770;52.158;5.372;2022-12-08T04:09:27;4.00;99.90
15341;DHT22;7770;52.158;5.372;2022-12-08T04:12:13;4.00;99.90
15341;DHT22;7770;52.158;5.372;2022-12-08T04:14:59;3.90;99.90
15341;DHT22;7770;52.158;5.372;2022-12-08T04:17:45;3.90;99.90
15341;DHT22;7770;52.158;5.372;2022-12-08T04:20:31;3.90;99.90
15341;DHT22;7770;52.158;5.372;2022-12-08T04:23:17;3.90;99.90
15341;DHT22;7770;52.158;5.372;2022-12-08T04:26:03;3.80;99.90
15341;DHT22;7770;52.158;5.372;2022-12-08T04:28:50;3.80;99.90
15341;DHT22;7770;52.158;5.372;2022-12-08T04:31:36;3.80;99.90
15341;DHT22;7770;52.158;5.372;2022-12-08T04:34:22;3.80;99.90
15341;DHT22;7770;52.158;5.372;2022-12-08T04:37:08;3.80;99.90
15341;DHT22;7770;52.158;5.372;2022-12-08T04:39:54;3.80;99.90
15341;DHT22;7770;52.158;5.372;2022-12-08T04:42:40;3.80;99.90
15341;DHT22;7770;52.158;5.372;2022-12-08T04:45:26;3.80;99.90
15341;DHT22;7770;52.158;5.372;2022-12-08T04:48:13;3.90;99.90
15341;DHT22;7770;52.158;5.372;2022-12-08T04:50:59;3.80;99.90
15341;DHT22;7770;52.158;5.372;2022-12-08T04:53:45;3.90;99.90
15341;DHT22;7770;52.158;5.372;2022-12-08T04:56:32;3.80;99.90
15341;DHT22;7770;52.158;5.372;2022-12-08T04:59:18;3.80;99.90
15341;DHT22;7770;52.158;5.372;2022-12-08T05:02:04;3.80;99.90
15341;DHT22;7770;52.158;5.372;2022-12-08T05:04:50;3.80;99.90
15341;DHT22;7770;52.158;5.372;2022-12-08T05:07:36;3.80;99.90
15341;DHT22;7770;52.158;5.372;2022-12-08T05:10:22;3.80;99.90
15341;DHT22;7770;52.158;5.372;2022-12-08T05:13:08;3.80;99.90
15341;DHT22;7770;52.158;5.372;2022-12-08T05:16:01;3.80;99.90
15341;DHT22;7770;52.158;5.372;2022-12-08T05:18:48;3.80;99.90
15341;DHT22;7770;52.158;5.372;2022-12-08T05:21:34;3.80;99.90
15341;DHT22;7770;52.158;5.372;2022-12-08T05:24:20;3.80;99.90
15341;DHT22;7770;52.158;5.372;2022-12-08T05:27:07;3.80;99.90
15341;DHT22;7770;52.158;5.372;2022-12-08T05:29:54;3.80;99.90
15341;DHT22;7770;52.158;5.372;2022-12-08T05:32:40;3.80;99.90
15341;DHT22;7770;52.158;5.372;2022-12-08T05:35:26;3.80;99.90
15341;DHT22;7770;52.158;5.372;2022-12-08T05:38:12;3.80;99.90
15341;DHT22;7770;52.158;5.372;2022-12-08T05:40:58;3.80;99.90
15341;DHT22;7770;52.158;5.372;2022-12-08T05:43:44;3.80;99.90
15341;DHT22;7770;52.158;5.372;2022-12-08T05:46:31;3.80;99.90
15341;DHT22;7770;52.158;5.372;2022-12-08T05:49:17;3.80;99.90
15341;DHT22;7770;52.158;5.372;2022-12-08T05:52:04;3.80;99.90
15341;DHT22;7770;52.158;5.372;2022-12-08T05:54:50;3.80;99.90
15341;DHT22;7770;52.158;5.372;2022-12-08T05:57:36;3.80;99.90
15341;DHT22;7770;52.158;5.372;2022-12-08T06:00:22;3.80;99.90
15341;DHT22;7770;52.158;5.372;2022-12-08T06:03:10;3.70;99.90
15341;DHT22;7770;52.158;5.372;2022-12-08T06:05:56;3.70;99.90
15341;DHT22;7770;52.158;5.372;2022-12-08T06:08:42;3.80;99.90
15341;DHT22;7770;52.158;5.372;2022-12-08T06:11:30;3.80;99.90
15341;DHT22;7770;52.158;5.372;2022-12-08T06:14:17;3.80;99.90
15341;DHT22;7770;52.158;5.372;2022-12-08T06:17:03;3.70;99.90
15341;DHT22;7770;52.158;5.372;2022-12-08T06:19:49;3.60;99.90
15341;DHT22;7770;52.158;5.372;2022-12-08T06:22:35;3.60;99.90
15341;DHT22;7770;52.158;5.372;2022-12-08T06:25:22;3.60;99.90
15341;DHT22;7770;52.158;5.372;2022-12-08T06:28:08;3.50;99.90
15341;DHT22;7770;52.158;5.372;2022-12-08T06:30:54;3.60;99.90
15341;DHT22;7770;52.158;5.372;2022-12-08T06:33:40;3.60;99.90
15341;DHT22;7770;52.158;5.372;2022-12-08T06:36:27;3.50;99.90
15341;DHT22;7770;52.158;5.372;2022-12-08T06:39:13;3.50;99.90
15341;DHT22;7770;52.158;5.372;2022-12-08T06:41:59;3.50;99.90
15341;DHT22;7770;52.158;5.372;2022-12-08T06:45:04;3.50;99.90
15341;DHT22;7770;52.158;5.372;2022-12-08T06:47:50;3.50;99.90
15341;DHT22;7770;52.158;5.372;2022-12-08T06:50:36;3.50;99.90
15341;DHT22;7770;52.158;5.372;2022-12-08T06:53:22;3.40;99.90
15341;DHT22;7770;52.158;5.372;2022-12-08T06:56:09;3.40;99.90
15341;DHT22;7770;52.158;5.372;2022-12-08T06:58:55;3.40;99.90
15341;DHT22;7770;52.158;5.372;2022-12-08T07:01:41;3.30;99.90
15341;DHT22;7770;52.158;5.372;2022-12-08T07:04:27;3.30;99.90
15341;DHT22;7770;52.158;5.372;2022-12-08T07:07:13;3.30;99.90
15341;DHT22;7770;52.158;5.372;2022-12-08T07:09:59;3.30;99.90
15341;DHT22;7770;52.158;5.372;2022-12-08T07:12:45;3.20;99.90
15341;DHT22;7770;52.158;5.372;2022-12-08T07:15:31;3.20;99.90
15341;DHT22;7770;52.158;5.372;2022-12-08T07:18:17;3.20;99.90
15341;DHT22;7770;52.158;5.372;2022-12-08T07:21:08;3.20;99.90
15341;DHT22;7770;52.158;5.372;2022-12-08T07:23:55;3.10;99.90
15341;DHT22;7770;52.158;5.372;2022-12-08T07:26:41;3.10;99.90
15341;DHT22;7770;52.158;5.372;2022-12-08T07:29:27;3.10;99.90
15341;DHT22;7770;52.158;5.372;2022-12-08T07:32:13;3.10;99.90
15341;DHT22;7770;52.158;5.372;2022-12-08T07:34:59;3.10;99.90
15341;DHT22;7770;52.158;5.372;2022-12-08T07:37:45;3.10;99.90
15341;DHT22;7770;52.158;5.372;2022-12-08T07:40:31;3.00;99.90
15341;DHT22;7770;52.158;5.372;2022-12-08T07:43:18;3.00;99.90
15341;DHT22;7770;52.158;5.372;2022-12-08T07:46:04;3.10;99.90
15341;DHT22;7770;52.158;5.372;2022-12-08T07:48:51;3.10;99.90
15341;DHT22;7770;52.158;5.372;2022-12-08T07:51:38;3.10;99.90
15341;DHT22;7770;52.158;5.372;2022-12-08T07:54:24;3.10;99.90
15341;DHT22;7770;52.158;5.372;2022-12-08T07:57:10;3.10;99.90
15341;DHT22;7770;52.158;5.372;2022-12-08T07:59:56;3.10;99.90
15341;DHT22;7770;52.158;5.372;2022-12-08T08:02:42;3.10;99.90
15341;DHT22;7770;52.158;5.372;2022-12-08T08:05:28;3.10;99.90
15341;DHT22;7770;52.158;5.372;2022-12-08T08:08:15;3.10;99.90
15341;DHT22;7770;52.158;5.372;2022-12-08T08:11:05;3.10;99.90
15341;DHT22;7770;52.158;5.372;2022-12-08T08:13:52;3.10;99.90
15341;DHT22;7770;52.158;5.372;2022-12-08T08:16:38;3.10;99.90
15341;DHT22;7770;52.158;5.372;2022-12-08T08:19:30;3.10;99.90
15341;DHT22;7770;52.158;5.372;2022-12-08T08:22:17;3.10;99.90
15341;DHT22;7770;52.158;5.372;2022-12-08T08:25:03;3.10;99.90
15341;DHT22;7770;52.158;5.372;2022-12-08T08:27:50;3.10;99.90
15341;DHT22;7770;52.158;5.372;2022-12-08T08:30:36;3.10;99.90
15341;DHT22;7770;52.158;5.372;2022-12-08T08:33:23;3.10;99.90
15341;DHT22;7770;52.158;5.372;2022-12-08T08:36:09;3.10;99.90
15341;DHT22;7770;52.158;5.372;2022-12-08T08:38:56;3.10;99.90
15341;DHT22;7770;52.158;5.372;2022-12-08T08:41:42;3.10;99.90
15341;DHT22;7770;52.158;5.372;2022-12-08T08:44:28;3.20;99.90
15341;DHT22;7770;52.158;5.372;2022-12-08T08:47:14;3.20;99.90
15341;DHT22;7770;52.158;5.372;2022-12-08T08:50:00;3.20;99.90
15341;DHT22;7770;52.158;5.372;2022-12-08T08:52:46;3.20;99.90
15341;DHT22;7770;52.158;5.372;2022-12-08T08:55:32;3.20;99.90
15341;DHT22;7770;52.158;5.372;2022-12-08T08:58:18;3.20;99.90
15341;DHT22;7770;52.158;5.372;2022-12-08T09:01:04;3.20;99.90
15341;DHT22;7770;52.158;5.372;2022-12-08T09:03:51;3.30;99.90
15341;DHT22;7770;52.158;5.372;2022-12-08T09:06:37;3.30;99.90
15341;DHT22;7770;52.158;5.372;2022-12-08T09:09:23;3.30;99.90
15341;DHT22;7770;52.158;5.372;2022-12-08T09:12:09;3.30;99.90
15341;DHT22;7770;52.158;5.372;2022-12-08T09:14:55;3.30;99.90
15341;DHT22;7770;52.158;5.372;2022-12-08T09:17:41;3.40;99.90
15341;DHT22;7770;52.158;5.372;2022-12-08T09:20:27;3.40;99.90
15341;DHT22;7770;52.158;5.372;2022-12-08T09:23:14;3.50;99.90
15341;DHT22;7770;52.158;5.372;2022-12-08T09:26:01;3.50;99.90
15341;DHT22;7770;52.158;5.372;2022-12-08T09:28:49;3.40;99.90
15341;DHT22;7770;52.158;5.372;2022-12-08T09:31:36;3.40;99.90
15341;DHT22;7770;52.158;5.372;2022-12-08T09:34:22;3.50;99.90
15341;DHT22;7770;52.158;5.372;2022-12-08T09:37:08;3.40;99.90
15341;DHT22;7770;52.158;5.372;2022-12-08T09:39:54;3.50;99.90
15341;DHT22;7770;52.158;5.372;2022-12-08T09:42:58;3.60;99.90
15341;DHT22;7770;52.158;5.372;2022-12-08T09:45:51;3.50;99.90
15341;DHT22;7770;52.158;5.372;2022-12-08T09:48:45;3.60;99.90
15341;DHT22;7770;52.158;5.372;2022-12-08T09:51:41;3.60;99.90
15341;DHT22;7770;52.158;5.372;2022-12-08T09:54:35;3.60;99.90
15341;DHT22;7770;52.158;5.372;2022-12-08T09:57:21;3.60;99.90
15341;DHT22;7770;52.158;5.372;2022-12-08T10:00:11;3.60;99.90
15341;DHT22;7770;52.158;5.372;2022-12-08T10:02:59;3.60;99.90
15341;DHT22;7770;52.158;5.372;2022-12-08T10:06:20;3.60;99.90
15341;DHT22;7770;52.158;5.372;2022-12-08T10:09:40;3.70;99.90
15341;DHT22;7770;52.158;5.372;2022-12-08T10:19:22;3.90;99.90
15341;DHT22;7770;52.158;5.372;2022-12-08T10:22:20;3.90;99.90
15341;DHT22;7770;52.158;5.372;2022-12-08T10:25:19;3.90;99.90
15341;DHT22;7770;52.158;5.372;2022-12-08T10:28:07;3.90;99.90
15341;DHT22;7770;52.158;5.372;2022-12-08T10:30:54;3.80;99.90
15341;DHT22;7770;52.158;5.372;2022-12-08T10:33:40;3.80;99.90
15341;DHT22;7770;52.158;5.372;2022-12-08T10:36:50;3.90;99.90
15341;DHT22;7770;52.158;5.372;2022-12-08T10:39:41;3.90;99.90
15341;DHT22;7770;52.158;5.372;2022-12-08T10:42:35;3.90;99.90
15341;DHT22;7770;52.158;5.372;2022-12-08T10:45:32;3.90;99.90
15341;DHT22;7770;52.158;5.372;2022-12-08T10:48:27;3.80;99.90
15341;DHT22;7770;52.158;5.372;2022-12-08T10:51:28;3.80;99.90
15341;DHT22;7770;52.158;5.372;2022-12-08T10:54:28;3.80;99.90
15341;DHT22;7770;52.158;5.372;2022-12-08T10:57:21;3.80;99.90
15341;DHT22;7770;52.158;5.372;2022-12-08T11:00:12;3.70;99.90
15341;DHT22;7770;52.158;5.372;2022-12-08T11:03:05;3.80;99.90
15341;DHT22;7770;52.158;5.372;2022-12-08T11:05:55;3.80;99.90
15341;DHT22;7770;52.158;5.372;2022-12-08T11:09:03;3.80;99.90
15341;DHT22;7770;52.158;5.372;2022-12-08T11:11:51;3.90;99.90
15341;DHT22;7770;52.158;5.372;2022-12-08T11:17:34;3.80;99.90
15341;DHT22;7770;52.158;5.372;2022-12-08T11:20:24;3.70;99.90
15341;DHT22;7770;52.158;5.372;2022-12-08T11:23:24;3.70;99.90
15341;DHT22;7770;52.158;5.372;2022-12-08T11:29:17;3.50;99.90
15341;DHT22;7770;52.158;5.372;2022-12-08T11:32:06;3.50;99.90
15341;DHT22;7770;52.158;5.372;2022-12-08T11:35:01;3.50;99.90
15341;DHT22;7770;52.158;5.372;2022-12-08T11:37:49;3.50;99.90
15341;DHT22;7770;52.158;5.372;2022-12-08T11:40:37;3.50;99.90
15341;DHT22;7770;52.158;5.372;2022-12-08T11:46:38;3.60;99.90
15341;DHT22;7770;52.158;5.372;2022-12-08T11:49:35;3.60;99.90
15341;DHT22;7770;52.158;5.372;2022-12-08T11:52:29;3.70;99.90
15341;DHT22;7770;52.158;5.372;2022-12-08T11:58:17;4.00;99.90
15341;DHT22;7770;52.158;5.372;2022-12-08T12:01:05;4.00;99.90
15341;DHT22;7770;52.158;5.372;2022-12-08T12:17:06;4.30;99.90
15341;DHT22;7770;52.158;5.372;2022-12-08T12:23:33;5.00;99.90
15341;DHT22;7770;52.158;5.372;2022-12-08T12:26:24;4.90;99.90
15341;DHT22;7770;52.158;5.372;2022-12-08T12:29:15;4.80;99.90
15341;DHT22;7770;52.158;5.372;2022-12-08T12:32:07;4.70;99.90
15341;DHT22;7770;52.158;5.372;2022-12-08T12:34:59;4.60;99.90
15341;DHT22;7770;52.158;5.372;2022-12-08T12:37:47;4.60;99.90
15341;DHT22;7770;52.158;5.372;2022-12-08T12:40:39;4.50;99.90
15341;DHT22;7770;52.158;5.372;2022-12-08T12:43:34;4.40;99.90
15341;DHT22;7770;52.158;5.372;2022-12-08T12:55:20;4.60;99.90
15341;DHT22;7770;52.158;5.372;2022-12-08T12:58:20;4.80;99.90
15341;DHT22;7770;52.158;5.372;2022-12-08T13:04:08;5.10;99.90
15341;DHT22;7770;52.158;5.372;2022-12-08T13:06:55;5.10;99.90
15341;DHT22;7770;52.158;5.372;2022-12-08T13:09:41;4.90;99.90
15341;DHT22;7770;52.158;5.372;2022-12-08T13:12:39;4.70;99.90
15341;DHT22;7770;52.158;5.372;2022-12-08T13:15:33;4.60;99.90
15341;DHT22;7770;52.158;5.372;2022-12-08T13:18:34;4.60;99.90
15341;DHT22;7770;52.158;5.372;2022-12-08T13:21:22;4.50;99.90
15341;DHT22;7770;52.158;5.372;2022-12-08T13:33:40;4.30;99.90
15341;DHT22;7770;52.158;5.372;2022-12-08T13:36:35;4.20;99.90
15341;DHT22;7770;52.158;5.372;2022-12-08T13:39:35;4.20;99.90
15341;DHT22;7770;52.158;5.372;2022-12-08T13:42:42;4.10;99.90
15341;DHT22;7770;52.158;5.372;2022-12-08T13:45:34;4.00;99.90
15341;DHT22;7770;52.158;5.372;2022-12-08T13:48:27;4.00;99.90
15341;DHT22;7770;52.158;5.372;2022-12-08T13:51:20;4.10;99.90
15341;DHT22;7770;52.158;5.372;2022-12-08T13:54:34;4.10;99.90
15341;DHT22;7770;52.158;5.372;2022-12-08T13:57:42;4.10;99.90
15341;DHT22;7770;52.158;5.372;2022-12-08T14:00:33;4.20;99.90
15341;DHT22;7770;52.158;5.372;2022-12-08T14:03:19;4.30;99.90
15341;DHT22;7770;52.158;5.372;2022-12-08T14:06:05;4.40;99.90
15341;DHT22;7770;52.158;5.372;2022-12-08T14:08:55;4.50;99.90
15341;DHT22;7770;52.158;5.372;2022-12-08T14:11:46;4.50;99.90
15341;DHT22;7770;52.158;5.372;2022-12-08T14:14:45;4.60;99.90
15341;DHT22;7770;52.158;5.372;2022-12-08T14:17:33;4.50;99.90
15341;DHT22;7770;52.158;5.372;2022-12-08T14:20:28;4.40;99.90
15341;DHT22;7770;52.158;5.372;2022-12-08T14:23:16;4.30;99.90
15341;DHT22;7770;52.158;5.372;2022-12-08T14:26:05;4.20;99.90
15341;DHT22;7770;52.158;5.372;2022-12-08T14:28:51;4.10;99.90
15341;DHT22;7770;52.158;5.372;2022-12-08T14:31:37;4.10;99.90
15341;DHT22;7770;52.158;5.372;2022-12-08T14:34:24;4.00;99.90
15341;DHT22;7770;52.158;5.372;2022-12-08T14:37:11;4.00;99.90
15341;DHT22;7770;52.158;5.372;2022-12-08T14:40:58;3.90;99.90
15341;DHT22;7770;52.158;5.372;2022-12-08T14:43:25;3.90;99.90
15341;DHT22;7770;52.158;5.372;2022-12-08T14:46:20;3.90;99.90
15341;DHT22;7770;52.158;5.372;2022-12-08T14:49:30;3.80;99.90
15341;DHT22;7770;52.158;5.372;2022-12-08T14:52:18;3.70;99.90
15341;DHT22;7770;52.158;5.372;2022-12-08T14:55:06;3.60;99.90
15341;DHT22;7770;52.158;5.372;2022-12-08T14:57:52;3.60;99.90
15341;DHT22;7770;52.158;5.372;2022-12-08T15:00:45;3.60;99.90
15341;DHT22;7770;52.158;5.372;2022-12-08T15:03:32;3.60;99.90
15341;DHT22;7770;52.158;5.372;2022-12-08T15:06:20;3.60;99.90
15341;DHT22;7770;52.158;5.372;2022-12-08T15:09:37;3.60;99.90
15341;DHT22;7770;52.158;5.372;2022-12-08T15:12:28;3.60;99.90
15341;DHT22;7770;52.158;5.372;2022-12-08T15:15:16;3.60;99.90
15341;DHT22;7770;52.158;5.372;2022-12-08T15:18:13;3.60;99.90
15341;DHT22;7770;52.158;5.372;2022-12-08T15:21:03;3.60;99.90
15341;DHT22;7770;52.158;5.372;2022-12-08T15:23:50;3.60;99.90
15341;DHT22;7770;52.158;5.372;2022-12-08T15:26:46;3.60;99.90
15341;DHT22;7770;52.158;5.372;2022-12-08T15:29:33;3.60;99.90
15341;DHT22;7770;52.158;5.372;2022-12-08T15:32:21;3.60;99.90
15341;DHT22;7770;52.158;5.372;2022-12-08T15:35:13;3.60;99.90
15341;DHT22;7770;52.158;5.372;2022-12-08T15:37:59;3.60;99.90
15341;DHT22;7770;52.158;5.372;2022-12-08T15:40:45;3.60;99.90
15341;DHT22;7770;52.158;5.372;2022-12-08T15:43:31;3.60;99.90
15341;DHT22;7770;52.158;5.372;2022-12-08T15:46:17;3.60;99.90
15341;DHT22;7770;52.158;5.372;2022-12-08T15:49:03;3.60;99.90
15341;DHT22;7770;52.158;5.372;2022-12-08T15:51:51;3.70;99.90
15341;DHT22;7770;52.158;5.372;2022-12-08T15:54:37;3.70;99.90
15341;DHT22;7770;52.158;5.372;2022-12-08T15:57:25;3.70;99.90
15341;DHT22;7770;52.158;5.372;2022-12-08T16:00:33;3.70;99.90
15341;DHT22;7770;52.158;5.372;2022-12-08T16:03:25;3.60;99.90
15341;DHT22;7770;52.158;5.372;2022-12-08T16:06:20;3.50;99.90
15341;DHT22;7770;52.158;5.372;2022-12-08T16:09:48;3.40;99.90
15341;DHT22;7770;52.158;5.372;2022-12-08T16:12:34;3.30;99.90
15341;DHT22;7770;52.158;5.372;2022-12-08T16:15:42;3.20;99.90
15341;DHT22;7770;52.158;5.372;2022-12-08T16:18:34;3.20;99.90
15341;DHT22;7770;52.158;5.372;2022-12-08T16:21:23;3.10;99.90
15341;DHT22;7770;52.158;5.372;2022-12-08T16:24:11;3.10;99.90
15341;DHT22;7770;52.158;5.372;2022-12-08T16:26:57;3.20;99.90
15341;DHT22;7770;52.158;5.372;2022-12-08T16:29:43;3.10;99.90
15341;DHT22;7770;52.158;5.372;2022-12-08T16:32:32;3.00;99.90
15341;DHT22;7770;52.158;5.372;2022-12-08T16:35:18;3.00;99.90
15341;DHT22;7770;52.158;5.372;2022-12-08T16:38:04;2.80;99.90
15341;DHT22;7770;52.158;5.372;2022-12-08T16:40:50;2.80;99.90
15341;DHT22;7770;52.158;5.372;2022-12-08T16:43:54;2.80;99.90
15341;DHT22;7770;52.158;5.372;2022-12-08T16:46:40;2.90;99.90
15341;DHT22;7770;52.158;5.372;2022-12-08T16:49:26;2.90;99.90
15341;DHT22;7770;52.158;5.372;2022-12-08T16:52:12;2.90;99.90
15341;DHT22;7770;52.158;5.372;2022-12-08T16:54:58;3.00;99.90
15341;DHT22;7770;52.158;5.372;2022-12-08T16:57:45;3.00;99.90
15341;DHT22;7770;52.158;5.372;2022-12-08T17:00:33;3.00;99.90
15341;DHT22;7770;52.158;5.372;2022-12-08T17:03:22;3.10;99.90
15341;DHT22;7770;52.158;5.372;2022-12-08T17:06:14;3.10;99.90
15341;DHT22;7770;52.158;5.372;2022-12-08T17:09:02;3.00;99.90
15341;DHT22;7770;52.158;5.372;2022-12-08T17:11:48;3.00;99.90
15341;DHT22;7770;52.158;5.372;2022-12-08T17:14:34;2.90;99.90
15341;DHT22;7770;52.158;5.372;2022-12-08T17:17:20;2.80;99.90
15341;DHT22;7770;52.158;5.372;2022-12-08T17:20:18;2.70;99.90
15341;DHT22;7770;52.158;5.372;2022-12-08T17:23:13;2.70;99.90
15341;DHT22;7770;52.158;5.372;2022-12-08T17:26:00;2.60;99.90
15341;DHT22;7770;52.158;5.372;2022-12-08T17:28:46;2.50;99.90
15341;DHT22;7770;52.158;5.372;2022-12-08T17:31:32;2.50;99.90
15341;DHT22;7770;52.158;5.372;2022-12-08T17:34:18;2.50;99.90
15341;DHT22;7770;52.158;5.372;2022-12-08T17:37:04;2.40;99.90
15341;DHT22;7770;52.158;5.372;2022-12-08T17:39:50;2.30;99.90
15341;DHT22;7770;52.158;5.372;2022-12-08T17:42:37;2.40;99.90
15341;DHT22;7770;52.158;5.372;2022-12-08T17:45:23;2.40;99.90
15341;DHT22;7770;52.158;5.372;2022-12-08T17:48:10;2.50;99.90
15341;DHT22;7770;52.158;5.372;2022-12-08T17:50:56;2.50;99.90
15341;DHT22;7770;52.158;5.372;2022-12-08T17:53:42;2.50;99.90
15341;DHT22;7770;52.158;5.372;2022-12-08T17:56:28;2.40;99.90
15341;DHT22;7770;52.158;5.372;2022-12-08T17:59:14;2.40;99.90
15341;DHT22;7770;52.158;5.372;2022-12-08T18:02:00;2.30;99.90
15341;DHT22;7770;52.158;5.372;2022-12-08T18:04:46;2.30;99.90
15341;DHT22;7770;52.158;5.372;2022-12-08T18:07:32;2.30;99.90
15341;DHT22;7770;52.158;5.372;2022-12-08T18:10:19;2.30;99.90
15341;DHT22;7770;52.158;5.372;2022-12-08T18:13:05;2.20;99.90
15341;DHT22;7770;52.158;5.372;2022-12-08T18:15:51;2.10;99.90
15341;DHT22;7770;52.158;5.372;2022-12-08T18:18:37;2.10;99.90
15341;DHT22;7770;52.158;5.372;2022-12-08T18:21:23;2.20;99.90
15341;DHT22;7770;52.158;5.372;2022-12-08T18:24:20;2.20;99.90
15341;DHT22;7770;52.158;5.372;2022-12-08T18:27:07;2.10;99.90
15341;DHT22;7770;52.158;5.372;2022-12-08T18:29:53;2.10;99.90
15341;DHT22;7770;52.158;5.372;2022-12-08T18:32:40;2.00;99.90
15341;DHT22;7770;52.158;5.372;2022-12-08T18:35:26;2.00;99.90
15341;DHT22;7770;52.158;5.372;2022-12-08T18:38:13;1.90;99.90
15341;DHT22;7770;52.158;5.372;2022-12-08T18:41:14;1.90;99.90
15341;DHT22;7770;52.158;5.372;2022-12-08T18:44:02;1.80;99.90
15341;DHT22;7770;52.158;5.372;2022-12-08T18:46:48;1.80;99.90
15341;DHT22;7770;52.158;5.372;2022-12-08T18:49:34;1.80;99.90
15341;DHT22;7770;52.158;5.372;2022-12-08T18:52:20;1.70;99.90
15341;DHT22;7770;52.158;5.372;2022-12-08T18:55:07;1.70;99.90
15341;DHT22;7770;52.158;5.372;2022-12-08T18:57:53;1.60;99.90
15341;DHT22;7770;52.158;5.372;2022-12-08T19:00:39;1.60;99.90
15341;DHT22;7770;52.158;5.372;2022-12-08T19:03:25;1.60;99.90
15341;DHT22;7770;52.158;5.372;2022-12-08T19:06:12;1.60;99.90
15341;DHT22;7770;52.158;5.372;2022-12-08T19:08:58;1.60;99.90
15341;DHT22;7770;52.158;5.372;2022-12-08T19:11:44;1.70;99.90
15341;DHT22;7770;52.158;5.372;2022-12-08T19:14:32;1.70;99.90
15341;DHT22;7770;52.158;5.372;2022-12-08T19:17:18;1.80;99.90
15341;DHT22;7770;52.158;5.372;2022-12-08T19:20:06;1.90;99.90
15341;DHT22;7770;52.158;5.372;2022-12-08T19:22:53;1.90;99.90
15341;DHT22;7770;52.158;5.372;2022-12-08T19:25:39;2.00;99.90
15341;DHT22;7770;52.158;5.372;2022-12-08T19:28:26;2.00;99.90
15341;DHT22;7770;52.158;5.372;2022-12-08T19:31:12;2.10;99.90
15341;DHT22;7770;52.158;5.372;2022-12-08T19:33:58;2.10;99.90
15341;DHT22;7770;52.158;5.372;2022-12-08T19:36:44;2.10;99.90
15341;DHT22;7770;52.158;5.372;2022-12-08T19:39:30;2.10;99.90
15341;DHT22;7770;52.158;5.372;2022-12-08T19:42:35;2.20;99.90
15341;DHT22;7770;52.158;5.372;2022-12-08T19:45:39;2.20;99.90
15341;DHT22;7770;52.158;5.372;2022-12-08T19:48:25;2.20;99.90